Portada
METAR-TAF:

METAR-TAF

Aeropuertos :

Aeropuerto de Aviñón-Provenza

Aviñón, Francia

latitud: 43-54-26N, longitud: 004-54-07E, altitud: 38 m

Observación

El informe se hizo hace 36 minutos, a las 19:00 UTC
Viento 11 kt del norte-noroeste
Temperatura 5°C
Humedad 75%
Presión 1018 hPa
Visibilidad: 9000 m

METAR: LFMV 291900Z AUTO 34011KT 9000 NSC 05/01 Q1018 NOSIG

Hora: 20:36 (19:36 UTC)

Pronóstico

El informe se hizo hace 5 horas y 36 minutos, a las 14:00 UTC
Pronóstico válido del 29 a las 15 UTC al 30 a las 15 UTC
Viento 10 kt del norte-noroeste
Visibilidad 10 km o más
sin nubes por debajo de 1500 m y sin presencia de cumulonimbus.
Temporalmente
del 29 a las 21 UTC al 30 a las 07 UTC
Viento 3 kt con dirección variable
Probabilidad 30% :
Temporalmente
del 30 a las 02 UTC al 30 a las 07 UTC
Visibilidad: 4000 m
neblina

TAF: LFMV 291400Z 2915/3015 33010KT CAVOK TEMPO 2921/3007 VRB03KT PROB30 TEMPO 3002/3007 4000 BR

Observaciones y pronósticos meteorológicos de más de 4000 aeropuertos (mensajes METAR y TAF).

Los puntos amarillos y rojos representan las estaciones disponibles.

Ponga el ratón en el punto deseado para ver el nombre de la estación.

Haga clic para ver las observaciones y los pronósticos meteorológicos.

Para cambiar el mapa : haga clic en los botones verdes con una cruz de color negro para hacer un zoom, en el botón verde con un guión para alejar o en las flechas verdes para mapas adyacentes.


METAR-TAF: